sensor_id;sensor_type;location;lat;lon;timestamp;pressure;altitude;pressure_sealevel;temperature;humidity
63691;BME280;49837;57.280;27.070;2023-02-12T00:00:20;100933.84;;;-5.11;95.33
63691;BME280;49837;57.280;27.070;2023-02-12T00:01:21;100936.73;;;-5.11;95.39
63691;BME280;49837;57.280;27.070;2023-02-12T00:02:20;100932.61;;;-5.13;95.47
63691;BME280;49837;57.280;27.070;2023-02-12T00:03:20;100931.1;;;-5.07;95.53
63691;BME280;49837;57.280;27.070;2023-02-12T00:04:20;100938.69;;;-5.11;95.47
63691;BME280;49837;57.280;27.070;2023-02-12T00:05:21;100946.49;;;-5.11;95.49
63691;BME280;49837;57.280;27.070;2023-02-12T00:06:22;100946.56;;;-5.13;95.4
63691;BME280;49837;57.280;27.070;2023-02-12T00:07:22;100952.58;;;-5.23;95.21
63691;BME280;49837;57.280;27.070;2023-02-12T00:08:22;100953.71;;;-5.19;95.51
63691;BME280;49837;57.280;27.070;2023-02-12T00:09:22;100951.62;;;-5.21;95.53
63691;BME280;49837;57.280;27.070;2023-02-12T00:10:23;100950.7;;;-5.23;95.64
63691;BME280;49837;57.280;27.070;2023-02-12T00:11:25;100952.77;;;-5.21;95.65
63691;BME280;49837;57.280;27.070;2023-02-12T00:12:24;100957.34;;;-5.22;95.71
63691;BME280;49837;57.280;27.070;2023-02-12T00:13:24;100963.51;;;-5.24;95.8
63691;BME280;49837;57.280;27.070;2023-02-12T00:14:24;100962.77;;;-5.2;95.86
63691;BME280;49837;57.280;27.070;2023-02-12T00:15:25;100960.43;;;-5.18;95.77
63691;BME280;49837;57.280;27.070;2023-02-12T00:16:29;100962.16;;;-5.16;95.73
63691;BME280;49837;57.280;27.070;2023-02-12T00:17:26;100964.4;;;-5.2;95.56
63691;BME280;49837;57.280;27.070;2023-02-12T00:18:27;100964.97;;;-5.24;95.67
63691;BME280;49837;57.280;27.070;2023-02-12T00:19:27;100962.88;;;-5.32;95.64
63691;BME280;49837;57.280;27.070;2023-02-12T00:20:28;100965.95;;;-5.43;95.6
63691;BME280;49837;57.280;27.070;2023-02-12T00:21:28;100966.45;;;-5.43;95.71
63691;BME280;49837;57.280;27.070;2023-02-12T00:22:28;100969.02;;;-5.46;95.74
63691;BME280;49837;57.280;27.070;2023-02-12T00:23:29;100967.81;;;-5.4;96.02
63691;BME280;49837;57.280;27.070;2023-02-12T00:24:29;100967.75;;;-5.43;96.12
63691;BME280;49837;57.280;27.070;2023-02-12T00:25:30;100970.69;;;-5.49;96.08
63691;BME280;49837;57.280;27.070;2023-02-12T00:26:30;100969.0;;;-5.47;96.26
63691;BME280;49837;57.280;27.070;2023-02-12T00:28:31;100967.3;;;-5.48;96.26
63691;BME280;49837;57.280;27.070;2023-02-12T00:29:32;100973.05;;;-5.49;96.22
63691;BME280;49837;57.280;27.070;2023-02-12T00:30:33;100966.99;;;-5.54;96.19
63691;BME280;49837;57.280;27.070;2023-02-12T00:31:33;100968.64;;;-5.56;96.36
63691;BME280;49837;57.280;27.070;2023-02-12T00:33:34;100978.05;;;-5.65;96.45
63691;BME280;49837;57.280;27.070;2023-02-12T00:34:34;100977.31;;;-5.67;96.57
63691;BME280;49837;57.280;27.070;2023-02-12T00:35:34;100978.32;;;-5.6;96.85
63691;BME280;49837;57.280;27.070;2023-02-12T00:36:35;100979.0;;;-5.61;96.74
63691;BME280;49837;57.280;27.070;2023-02-12T00:37:35;100978.63;;;-5.57;96.85
63691;BME280;49837;57.280;27.070;2023-02-12T00:38:36;100982.66;;;-5.56;96.79
63691;BME280;49837;57.280;27.070;2023-02-12T00:39:37;100986.65;;;-5.59;96.86
63691;BME280;49837;57.280;27.070;2023-02-12T00:40:37;100987.39;;;-5.59;96.92
63691;BME280;49837;57.280;27.070;2023-02-12T00:41:38;100987.84;;;-5.6;96.92
63691;BME280;49837;57.280;27.070;2023-02-12T00:42:38;100993.84;;;-5.67;96.89
63691;BME280;49837;57.280;27.070;2023-02-12T00:43:38;100996.98;;;-5.71;96.98
63691;BME280;49837;57.280;27.070;2023-02-12T00:44:39;100999.59;;;-5.7;97.08
63691;BME280;49837;57.280;27.070;2023-02-12T00:45:39;101004.27;;;-5.69;97.13
63691;BME280;49837;57.280;27.070;2023-02-12T00:46:40;101005.32;;;-5.74;97.12
63691;BME280;49837;57.280;27.070;2023-02-12T00:47:40;101006.1;;;-5.84;97.09
63691;BME280;49837;57.280;27.070;2023-02-12T00:48:40;101004.65;;;-5.83;97.3
63691;BME280;49837;57.280;27.070;2023-02-12T00:49:41;101001.01;;;-5.78;97.44
63691;BME280;49837;57.280;27.070;2023-02-12T00:50:44;100993.58;;;-5.8;97.41
63691;BME280;49837;57.280;27.070;2023-02-12T00:51:42;101002.11;;;-5.85;97.26
63691;BME280;49837;57.280;27.070;2023-02-12T00:52:42;101002.31;;;-5.85;97.24
63691;BME280;49837;57.280;27.070;2023-02-12T00:53:43;101002.81;;;-5.88;97.32
63691;BME280;49837;57.280;27.070;2023-02-12T00:54:43;100999.78;;;-5.93;97.38
63691;BME280;49837;57.280;27.070;2023-02-12T00:55:44;101004.44;;;-5.91;97.59
63691;BME280;49837;57.280;27.070;2023-02-12T00:56:44;101010.41;;;-5.88;97.69
63691;BME280;49837;57.280;27.070;2023-02-12T00:57:44;101007.92;;;-5.92;97.58
63691;BME280;49837;57.280;27.070;2023-02-12T00:58:45;101007.08;;;-5.98;97.51
63691;BME280;49837;57.280;27.070;2023-02-12T00:59:45;101005.06;;;-6.0;97.61
63691;BME280;49837;57.280;27.070;2023-02-12T01:00:46;101005.13;;;-5.98;97.74
63691;BME280;49837;57.280;27.070;2023-02-12T01:01:46;101006.44;;;-5.98;97.84
63691;BME280;49837;57.280;27.070;2023-02-12T01:02:46;101002.84;;;-6.02;97.87
63691;BME280;49837;57.280;27.070;2023-02-12T01:03:46;100999.59;;;-5.99;97.94
63691;BME280;49837;57.280;27.070;2023-02-12T01:04:47;101002.1;;;-5.99;98.03
63691;BME280;49837;57.280;27.070;2023-02-12T01:05:47;101003.79;;;-5.98;98.05
63691;BME280;49837;57.280;27.070;2023-02-12T01:06:48;101006.73;;;-6.06;97.93
63691;BME280;49837;57.280;27.070;2023-02-12T01:07:52;101009.01;;;-6.06;97.92
63691;BME280;49837;57.280;27.070;2023-02-12T01:08:50;101007.7;;;-6.1;97.96
63691;BME280;49837;57.280;27.070;2023-02-12T01:09:50;101009.16;;;-6.17;97.9
63691;BME280;49837;57.280;27.070;2023-02-12T01:10:55;101012.67;;;-6.18;98.11
63691;BME280;49837;57.280;27.070;2023-02-12T01:11:54;101018.38;;;-6.16;98.19
63691;BME280;49837;57.280;27.070;2023-02-12T01:12:55;101019.99;;;-6.13;98.29
63691;BME280;49837;57.280;27.070;2023-02-12T01:13:55;101020.95;;;-6.18;98.34
63691;BME280;49837;57.280;27.070;2023-02-12T01:14:56;101024.46;;;-6.23;98.28
63691;BME280;49837;57.280;27.070;2023-02-12T01:16:59;101028.28;;;-6.26;98.36
63691;BME280;49837;57.280;27.070;2023-02-12T01:18:00;101024.8;;;-6.29;98.35
63691;BME280;49837;57.280;27.070;2023-02-12T01:19:00;101026.62;;;-6.25;98.52
63691;BME280;49837;57.280;27.070;2023-02-12T01:20:00;101027.61;;;-6.28;98.52
63691;BME280;49837;57.280;27.070;2023-02-12T01:21:01;101031.36;;;-6.29;98.59
63691;BME280;49837;57.280;27.070;2023-02-12T01:22:01;101030.2;;;-6.24;98.69
63691;BME280;49837;57.280;27.070;2023-02-12T01:23:02;101030.12;;;-6.25;98.72
63691;BME280;49837;57.280;27.070;2023-02-12T01:24:02;101032.77;;;-6.3;98.69
63691;BME280;49837;57.280;27.070;2023-02-12T01:25:04;101041.13;;;-6.3;98.67
63691;BME280;49837;57.280;27.070;2023-02-12T01:26:03;101041.34;;;-6.35;98.71
63691;BME280;49837;57.280;27.070;2023-02-12T01:27:12;101041.58;;;-6.39;98.74
63691;BME280;49837;57.280;27.070;2023-02-12T01:28:04;101037.41;;;-6.36;98.84
63691;BME280;49837;57.280;27.070;2023-02-12T01:29:06;101035.14;;;-6.41;98.84
63691;BME280;49837;57.280;27.070;2023-02-12T01:30:10;101036.38;;;-6.45;98.89
63691;BME280;49837;57.280;27.070;2023-02-12T01:31:13;101037.93;;;-6.45;98.97
63691;BME280;49837;57.280;27.070;2023-02-12T01:32:11;101036.84;;;-6.44;99.05
63691;BME280;49837;57.280;27.070;2023-02-12T01:33:12;101038.89;;;-6.43;99.2
63691;BME280;49837;57.280;27.070;2023-02-12T01:34:12;101042.92;;;-6.39;99.23
63691;BME280;49837;57.280;27.070;2023-02-12T01:35:12;101038.75;;;-6.42;99.14
63691;BME280;49837;57.280;27.070;2023-02-12T01:36:13;101041.64;;;-6.43;99.19
63691;BME280;49837;57.280;27.070;2023-02-12T01:37:14;101043.83;;;-6.5;99.07
63691;BME280;49837;57.280;27.070;2023-02-12T01:38:13;101047.6;;;-6.58;98.94
63691;BME280;49837;57.280;27.070;2023-02-12T01:39:14;101046.55;;;-6.58;99.11
63691;BME280;49837;57.280;27.070;2023-02-12T01:40:18;101050.34;;;-6.54;99.21
63691;BME280;49837;57.280;27.070;2023-02-12T01:41:27;101050.3;;;-6.57;99.2
63691;BME280;49837;57.280;27.070;2023-02-12T01:42:20;101050.12;;;-6.6;99.15
63691;BME280;49837;57.280;27.070;2023-02-12T01:43:20;101056.09;;;-6.54;99.28
63691;BME280;49837;57.280;27.070;2023-02-12T01:44:23;101056.38;;;-6.54;99.33
63691;BME280;49837;57.280;27.070;2023-02-12T01:46:22;101059.17;;;-6.58;99.41
63691;BME280;49837;57.280;27.070;2023-02-12T01:47:23;101069.42;;;-6.58;99.43
63691;BME280;49837;57.280;27.070;2023-02-12T01:48:24;101071.61;;;-6.62;99.41
63691;BME280;49837;57.280;27.070;2023-02-12T01:50:24;101080.9;;;-6.51;99.56
63691;BME280;49837;57.280;27.070;2023-02-12T01:51:29;101085.91;;;-6.47;99.57
63691;BME280;49837;57.280;27.070;2023-02-12T01:52:33;101088.45;;;-6.56;99.33
63691;BME280;49837;57.280;27.070;2023-02-12T01:54:30;101100.12;;;-6.6;99.5
63691;BME280;49837;57.280;27.070;2023-02-12T01:55:30;101096.58;;;-6.58;99.55
63691;BME280;49837;57.280;27.070;2023-02-12T01:56:31;101097.3;;;-6.56;99.56
63691;BME280;49837;57.280;27.070;2023-02-12T01:57:33;101094.08;;;-6.54;99.47
63691;BME280;49837;57.280;27.070;2023-02-12T01:58:35;101102.25;;;-6.53;99.46
63691;BME280;49837;57.280;27.070;2023-02-12T01:59:35;101098.58;;;-6.57;99.44
63691;BME280;49837;57.280;27.070;2023-02-12T02:00:34;101095.82;;;-6.52;99.49
63691;BME280;49837;57.280;27.070;2023-02-12T02:01:35;101099.97;;;-6.49;99.53
63691;BME280;49837;57.280;27.070;2023-02-12T02:02:36;101101.88;;;-6.46;99.56
63691;BME280;49837;57.280;27.070;2023-02-12T02:03:37;101108.51;;;-6.5;99.47
63691;BME280;49837;57.280;27.070;2023-02-12T02:04:40;101108.81;;;-6.51;99.51
63691;BME280;49837;57.280;27.070;2023-02-12T02:07:42;101106.64;;;-6.47;99.27
63691;BME280;49837;57.280;27.070;2023-02-12T02:08:43;101110.88;;;-6.52;99.11
63691;BME280;49837;57.280;27.070;2023-02-12T02:09:43;101108.98;;;-6.53;99.2
63691;BME280;49837;57.280;27.070;2023-02-12T02:10:46;101114.64;;;-6.49;99.27
63691;BME280;49837;57.280;27.070;2023-02-12T02:11:44;101115.44;;;-6.48;99.3
63691;BME280;49837;57.280;27.070;2023-02-12T02:12:44;101118.52;;;-6.48;99.32
63691;BME280;49837;57.280;27.070;2023-02-12T02:13:45;101118.33;;;-6.53;99.24
63691;BME280;49837;57.280;27.070;2023-02-12T02:14:46;101115.47;;;-6.49;99.31
63691;BME280;49837;57.280;27.070;2023-02-12T02:15:48;101110.59;;;-6.49;99.25
63691;BME280;49837;57.280;27.070;2023-02-12T02:18:01;101118.01;;;-6.39;99.22
63691;BME280;49837;57.280;27.070;2023-02-12T02:18:55;101114.92;;;-6.29;99.23
63691;BME280;49837;57.280;27.070;2023-02-12T02:27:29;101116.1;;;-6.17;99.21
63691;BME280;49837;57.280;27.070;2023-02-12T02:30:42;101122.64;;;-6.15;99.13
63691;BME280;49837;57.280;27.070;2023-02-12T02:34:39;101128.59;;;-6.13;99.05
63691;BME280;49837;57.280;27.070;2023-02-12T02:41:06;101137.8;;;-6.05;98.87
63691;BME280;49837;57.280;27.070;2023-02-12T02:43:05;101132.11;;;-6.02;98.86
63691;BME280;49837;57.280;27.070;2023-02-12T02:44:08;101131.8;;;-6.04;98.91
63691;BME280;49837;57.280;27.070;2023-02-12T02:46:15;101132.81;;;-6.04;98.94
63691;BME280;49837;57.280;27.070;2023-02-12T02:47:15;101130.92;;;-6.05;98.97
63691;BME280;49837;57.280;27.070;2023-02-12T02:50:23;101125.34;;;-5.95;98.97
63691;BME280;49837;57.280;27.070;2023-02-12T02:52:32;101131.77;;;-5.95;98.86
63691;BME280;49837;57.280;27.070;2023-02-12T02:53:42;101132.31;;;-5.97;98.78
63691;BME280;49837;57.280;27.070;2023-02-12T02:54:32;101134.05;;;-6.0;98.82
63691;BME280;49837;57.280;27.070;2023-02-12T02:55:36;101133.28;;;-5.97;98.87
63691;BME280;49837;57.280;27.070;2023-02-12T02:56:37;101129.56;;;-5.95;98.85
63691;BME280;49837;57.280;27.070;2023-02-12T02:58:45;101136.3;;;-5.94;98.81
63691;BME280;49837;57.280;27.070;2023-02-12T02:59:49;101141.95;;;-5.96;98.8
63691;BME280;49837;57.280;27.070;2023-02-12T03:04:06;101149.27;;;-5.9;98.71
63691;BME280;49837;57.280;27.070;2023-02-12T03:05:11;101148.84;;;-5.93;98.71
63691;BME280;49837;57.280;27.070;2023-02-12T03:06:08;101153.98;;;-5.89;98.74
63691;BME280;49837;57.280;27.070;2023-02-12T03:07:12;101154.44;;;-5.89;98.68
63691;BME280;49837;57.280;27.070;2023-02-12T03:08:26;101154.65;;;-5.91;98.63
63691;BME280;49837;57.280;27.070;2023-02-12T03:14:25;101164.36;;;-5.89;98.54
63691;BME280;49837;57.280;27.070;2023-02-12T03:15:23;101164.77;;;-5.9;98.47
63691;BME280;49837;57.280;27.070;2023-02-12T03:16:22;101165.44;;;-5.93;98.55
63691;BME280;49837;57.280;27.070;2023-02-12T03:17:29;101165.08;;;-5.92;98.54
63691;BME280;49837;57.280;27.070;2023-02-12T03:18:30;101165.59;;;-5.93;98.54
63691;BME280;49837;57.280;27.070;2023-02-12T03:19:34;101168.27;;;-5.93;98.53
63691;BME280;49837;57.280;27.070;2023-02-12T03:20:34;101167.48;;;-5.91;98.54
63691;BME280;49837;57.280;27.070;2023-02-12T03:21:40;101167.14;;;-5.92;98.52
63691;BME280;49837;57.280;27.070;2023-02-12T03:22:36;101166.22;;;-5.92;98.58
63691;BME280;49837;57.280;27.070;2023-02-12T03:23:45;101171.8;;;-5.93;98.52
63691;BME280;49837;57.280;27.070;2023-02-12T03:27:58;101177.23;;;-5.94;98.7
63691;BME280;49837;57.280;27.070;2023-02-12T03:28:53;101177.8;;;-5.97;98.73
63691;BME280;49837;57.280;27.070;2023-02-12T03:29:54;101186.84;;;-6.0;98.71
63691;BME280;49837;57.280;27.070;2023-02-12T03:32:19;101186.41;;;-6.02;98.86
63691;BME280;49837;57.280;27.070;2023-02-12T03:37:11;101182.89;;;-6.04;98.95
63691;BME280;49837;57.280;27.070;2023-02-12T03:40:22;101202.19;;;-6.06;98.96
63691;BME280;49837;57.280;27.070;2023-02-12T03:41:26;101197.91;;;-6.07;99.05
63691;BME280;49837;57.280;27.070;2023-02-12T03:48:46;101213.62;;;-6.13;99.04
63691;BME280;49837;57.280;27.070;2023-02-12T03:51:49;101215.44;;;-6.08;99.19
63691;BME280;49837;57.280;27.070;2023-02-12T03:52:50;101214.14;;;-6.1;99.14
63691;BME280;49837;57.280;27.070;2023-02-12T03:53:51;101226.0;;;-6.05;99.13
63691;BME280;49837;57.280;27.070;2023-02-12T03:54:51;101221.3;;;-6.1;99.12
63691;BME280;49837;57.280;27.070;2023-02-12T03:55:59;101213.2;;;-6.13;99.14
63691;BME280;49837;57.280;27.070;2023-02-12T03:57:00;101218.2;;;-6.1;99.18
63691;BME280;49837;57.280;27.070;2023-02-12T03:57:57;101219.84;;;-6.12;99.16
63691;BME280;49837;57.280;27.070;2023-02-12T03:58:56;101226.64;;;-6.08;99.15
63691;BME280;49837;57.280;27.070;2023-02-12T03:59:57;101221.48;;;-6.09;99.18
63691;BME280;49837;57.280;27.070;2023-02-12T04:00:57;101225.69;;;-6.12;99.14
63691;BME280;49837;57.280;27.070;2023-02-12T04:01:58;101237.16;;;-6.16;99.2
63691;BME280;49837;57.280;27.070;2023-02-12T04:02:57;101228.77;;;-6.2;99.35
63691;BME280;49837;57.280;27.070;2023-02-12T04:03:58;101224.89;;;-6.16;99.44
63691;BME280;49837;57.280;27.070;2023-02-12T04:05:04;101226.86;;;-6.17;99.54
63691;BME280;49837;57.280;27.070;2023-02-12T04:06:03;101234.07;;;-6.13;99.55
63691;BME280;49837;57.280;27.070;2023-02-12T04:07:03;101239.01;;;-6.15;99.53
63691;BME280;49837;57.280;27.070;2023-02-12T04:08:05;101234.76;;;-6.17;99.57
63691;BME280;49837;57.280;27.070;2023-02-12T04:09:07;101228.07;;;-6.1;99.6
63691;BME280;49837;57.280;27.070;2023-02-12T04:10:06;101222.25;;;-6.11;99.56
63691;BME280;49837;57.280;27.070;2023-02-12T04:11:16;101222.6;;;-6.09;99.49
63691;BME280;49837;57.280;27.070;2023-02-12T04:16:28;101232.81;;;-6.11;99.47
63691;BME280;49837;57.280;27.070;2023-02-12T04:31:02;101244.91;;;-6.08;98.48
63691;BME280;49837;57.280;27.070;2023-02-12T04:33:04;101254.09;;;-6.11;98.34
63691;BME280;49837;57.280;27.070;2023-02-12T04:36:20;101252.91;;;-6.16;98.41
63691;BME280;49837;57.280;27.070;2023-02-12T04:37:21;101254.53;;;-6.16;98.44
63691;BME280;49837;57.280;27.070;2023-02-12T04:39:26;101253.14;;;-6.19;98.4
63691;BME280;49837;57.280;27.070;2023-02-12T04:40:25;101260.73;;;-6.17;98.36
63691;BME280;49837;57.280;27.070;2023-02-12T04:41:25;101259.66;;;-6.16;98.35
63691;BME280;49837;57.280;27.070;2023-02-12T04:42:25;101274.24;;;-6.18;98.23
63691;BME280;49837;57.280;27.070;2023-02-12T04:43:31;101272.5;;;-6.2;98.24
63691;BME280;49837;57.280;27.070;2023-02-12T04:44:30;101275.94;;;-6.18;98.24
63691;BME280;49837;57.280;27.070;2023-02-12T04:45:29;101270.66;;;-6.15;98.17
63691;BME280;49837;57.280;27.070;2023-02-12T04:46:28;101276.7;;;-6.16;98.12
63691;BME280;49837;57.280;27.070;2023-02-12T04:47:28;101260.31;;;-6.17;98.15
63691;BME280;49837;57.280;27.070;2023-02-12T04:48:28;101275.29;;;-6.18;98.16
63691;BME280;49837;57.280;27.070;2023-02-12T04:49:29;101280.59;;;-6.09;98.18
63691;BME280;49837;57.280;27.070;2023-02-12T04:50:41;101287.34;;;-6.12;98.08
63691;BME280;49837;57.280;27.070;2023-02-12T04:51:33;101284.78;;;-6.21;98.06
63691;BME280;49837;57.280;27.070;2023-02-12T04:52:34;101280.96;;;-6.19;98.1
63691;BME280;49837;57.280;27.070;2023-02-12T04:53:34;101288.36;;;-6.18;98.03
63691;BME280;49837;57.280;27.070;2023-02-12T04:54:35;101284.8;;;-6.15;97.98
63691;BME280;49837;57.280;27.070;2023-02-12T04:55:35;101278.77;;;-6.22;97.92
63691;BME280;49837;57.280;27.070;2023-02-12T04:56:35;101277.42;;;-6.27;98.0
63691;BME280;49837;57.280;27.070;2023-02-12T04:57:36;101280.89;;;-6.23;98.04
63691;BME280;49837;57.280;27.070;2023-02-12T04:58:36;101280.27;;;-6.26;98.04
63691;BME280;49837;57.280;27.070;2023-02-12T04:59:37;101285.9;;;-6.25;98.08
63691;BME280;49837;57.280;27.070;2023-02-12T05:00:37;101285.3;;;-6.24;98.05
63691;BME280;49837;57.280;27.070;2023-02-12T05:01:38;101285.56;;;-6.23;98.04
63691;BME280;49837;57.280;27.070;2023-02-12T05:02:38;101290.34;;;-6.26;97.99
63691;BME280;49837;57.280;27.070;2023-02-12T05:03:38;101286.36;;;-6.27;98.02
63691;BME280;49837;57.280;27.070;2023-02-12T05:04:39;101289.48;;;-6.26;98.03
63691;BME280;49837;57.280;27.070;2023-02-12T05:05:39;101285.91;;;-6.26;97.99
63691;BME280;49837;57.280;27.070;2023-02-12T05:06:39;101288.51;;;-6.24;97.95
63691;BME280;49837;57.280;27.070;2023-02-12T05:07:40;101288.2;;;-6.25;97.83
63691;BME280;49837;57.280;27.070;2023-02-12T05:08:40;101287.47;;;-6.3;97.83
63691;BME280;49837;57.280;27.070;2023-02-12T05:09:41;101288.25;;;-6.28;97.86
63691;BME280;49837;57.280;27.070;2023-02-12T05:10:41;101291.41;;;-6.28;97.82
63691;BME280;49837;57.280;27.070;2023-02-12T05:11:41;101287.91;;;-6.26;97.84
63691;BME280;49837;57.280;27.070;2023-02-12T05:12:42;101285.48;;;-6.29;97.85
63691;BME280;49837;57.280;27.070;2023-02-12T05:13:42;101290.41;;;-6.27;97.82
63691;BME280;49837;57.280;27.070;2023-02-12T05:14:42;101288.5;;;-6.32;97.72
63691;BME280;49837;57.280;27.070;2023-02-12T05:15:43;101287.03;;;-6.27;97.75
63691;BME280;49837;57.280;27.070;2023-02-12T05:16:43;101285.83;;;-6.24;97.72
63691;BME280;49837;57.280;27.070;2023-02-12T05:17:44;101295.09;;;-6.26;97.7
63691;BME280;49837;57.280;27.070;2023-02-12T05:18:44;101299.02;;;-6.24;97.71
63691;BME280;49837;57.280;27.070;2023-02-12T05:19:46;101300.8;;;-6.27;97.7
63691;BME280;49837;57.280;27.070;2023-02-12T05:20:45;101288.78;;;-6.3;97.71
63691;BME280;49837;57.280;27.070;2023-02-12T05:21:45;101284.67;;;-6.29;97.69
63691;BME280;49837;57.280;27.070;2023-02-12T05:22:49;101284.83;;;-6.32;97.68
63691;BME280;49837;57.280;27.070;2023-02-12T05:23:48;101280.77;;;-6.39;97.67
63691;BME280;49837;57.280;27.070;2023-02-12T05:24:47;101284.37;;;-6.38;97.74
63691;BME280;49837;57.280;27.070;2023-02-12T05:25:48;101289.46;;;-6.32;97.73
63691;BME280;49837;57.280;27.070;2023-02-12T05:26:49;101284.39;;;-6.35;97.69
63691;BME280;49837;57.280;27.070;2023-02-12T05:27:48;101284.86;;;-6.36;97.68
63691;BME280;49837;57.280;27.070;2023-02-12T05:28:49;101283.53;;;-6.39;97.68
63691;BME280;49837;57.280;27.070;2023-02-12T05:29:49;101286.8;;;-6.38;97.66
63691;BME280;49837;57.280;27.070;2023-02-12T05:30:49;101291.19;;;-6.4;97.72
63691;BME280;49837;57.280;27.070;2023-02-12T05:31:50;101294.55;;;-6.38;97.75
63691;BME280;49837;57.280;27.070;2023-02-12T05:32:50;101293.39;;;-6.42;97.75
63691;BME280;49837;57.280;27.070;2023-02-12T05:33:51;101291.52;;;-6.42;97.75
63691;BME280;49837;57.280;27.070;2023-02-12T05:34:51;101290.69;;;-6.45;97.74
63691;BME280;49837;57.280;27.070;2023-02-12T05:35:51;101293.25;;;-6.5;97.69
63691;BME280;49837;57.280;27.070;2023-02-12T05:36:52;101289.31;;;-6.54;97.57
63691;BME280;49837;57.280;27.070;2023-02-12T05:37:52;101289.89;;;-6.56;97.63
63691;BME280;49837;57.280;27.070;2023-02-12T05:38:56;101292.47;;;-6.52;97.77
63691;BME280;49837;57.280;27.070;2023-02-12T05:39:54;101295.64;;;-6.54;97.8
63691;BME280;49837;57.280;27.070;2023-02-12T05:41:06;101290.28;;;-6.56;97.85
63691;BME280;49837;57.280;27.070;2023-02-12T05:41:59;101303.21;;;-6.57;97.81
63691;BME280;49837;57.280;27.070;2023-02-12T05:42:59;101309.67;;;-6.64;97.87
63691;BME280;49837;57.280;27.070;2023-02-12T05:44:02;101315.9;;;-6.6;97.96
63691;BME280;49837;57.280;27.070;2023-02-12T05:45:00;101316.12;;;-6.61;97.95
63691;BME280;49837;57.280;27.070;2023-02-12T05:46:01;101326.22;;;-6.65;97.91
63691;BME280;49837;57.280;27.070;2023-02-12T05:47:01;101319.35;;;-6.62;98.07
63691;BME280;49837;57.280;27.070;2023-02-12T05:48:01;101320.61;;;-6.58;98.07
63691;BME280;49837;57.280;27.070;2023-02-12T05:49:01;101322.48;;;-6.55;98.05
63691;BME280;49837;57.280;27.070;2023-02-12T05:50:02;101323.0;;;-6.53;97.91
63691;BME280;49837;57.280;27.070;2023-02-12T05:51:07;101321.91;;;-6.51;97.88
63691;BME280;49837;57.280;27.070;2023-02-12T05:52:06;101314.98;;;-6.53;97.79
63691;BME280;49837;57.280;27.070;2023-02-12T05:53:07;101322.97;;;-6.53;97.85
63691;BME280;49837;57.280;27.070;2023-02-12T05:54:07;101326.22;;;-6.53;97.79
63691;BME280;49837;57.280;27.070;2023-02-12T05:55:07;101324.57;;;-6.5;97.82
63691;BME280;49837;57.280;27.070;2023-02-12T05:56:16;101317.89;;;-6.45;97.8
63691;BME280;49837;57.280;27.070;2023-02-12T05:57:08;101316.78;;;-6.43;97.71
63691;BME280;49837;57.280;27.070;2023-02-12T05:58:09;101318.38;;;-6.45;97.74
63691;BME280;49837;57.280;27.070;2023-02-12T05:59:15;101323.9;;;-6.4;97.78
63691;BME280;49837;57.280;27.070;2023-02-12T06:00:14;101325.83;;;-6.39;97.79
63691;BME280;49837;57.280;27.070;2023-02-12T06:01:23;101323.02;;;-6.36;97.79
63691;BME280;49837;57.280;27.070;2023-02-12T06:02:16;101327.8;;;-6.32;97.72
63691;BME280;49837;57.280;27.070;2023-02-12T06:03:16;101328.27;;;-6.35;97.6
63691;BME280;49837;57.280;27.070;2023-02-12T06:04:20;101324.34;;;-6.34;97.58
63691;BME280;49837;57.280;27.070;2023-02-12T06:05:18;101327.06;;;-6.36;97.55
63691;BME280;49837;57.280;27.070;2023-02-12T06:06:18;101327.48;;;-6.37;97.52
63691;BME280;49837;57.280;27.070;2023-02-12T06:07:19;101330.12;;;-6.35;97.52
63691;BME280;49837;57.280;27.070;2023-02-12T06:08:19;101329.48;;;-6.39;97.6
63691;BME280;49837;57.280;27.070;2023-02-12T06:09:20;101333.34;;;-6.39;97.68
63691;BME280;49837;57.280;27.070;2023-02-12T06:10:20;101327.6;;;-6.38;97.73
63691;BME280;49837;57.280;27.070;2023-02-12T06:11:21;101328.7;;;-6.29;97.69
63691;BME280;49837;57.280;27.070;2023-02-12T06:12:21;101324.45;;;-6.28;97.56
63691;BME280;49837;57.280;27.070;2023-02-12T06:13:21;101327.97;;;-6.3;97.47
63691;BME280;49837;57.280;27.070;2023-02-12T06:14:22;101329.11;;;-6.29;97.38
63691;BME280;49837;57.280;27.070;2023-02-12T06:15:22;101331.98;;;-6.27;97.28
63691;BME280;49837;57.280;27.070;2023-02-12T06:16:25;101335.7;;;-6.26;97.19
63691;BME280;49837;57.280;27.070;2023-02-12T06:17:23;101337.17;;;-6.27;97.12
63691;BME280;49837;57.280;27.070;2023-02-12T06:18:24;101334.42;;;-6.31;97.1
63691;BME280;49837;57.280;27.070;2023-02-12T06:19:23;101330.5;;;-6.3;97.08
63691;BME280;49837;57.280;27.070;2023-02-12T06:20:24;101327.1;;;-6.31;97.07
63691;BME280;49837;57.280;27.070;2023-02-12T06:21:25;101331.52;;;-6.35;97.05
63691;BME280;49837;57.280;27.070;2023-02-12T06:22:26;101334.47;;;-6.33;97.1
63691;BME280;49837;57.280;27.070;2023-02-12T06:23:25;101338.55;;;-6.36;97.09
63691;BME280;49837;57.280;27.070;2023-02-12T06:24:25;101338.41;;;-6.48;97.24
63691;BME280;49837;57.280;27.070;2023-02-12T06:25:26;101338.38;;;-6.41;97.36
63691;BME280;49837;57.280;27.070;2023-02-12T06:26:26;101334.39;;;-6.35;97.34
63691;BME280;49837;57.280;27.070;2023-02-12T06:27:27;101332.79;;;-6.3;97.25
63691;BME280;49837;57.280;27.070;2023-02-12T06:28:27;101336.16;;;-6.28;97.09
63691;BME280;49837;57.280;27.070;2023-02-12T06:29:27;101340.14;;;-6.36;96.99
63691;BME280;49837;57.280;27.070;2023-02-12T06:30:28;101342.91;;;-6.37;97.06
63691;BME280;49837;57.280;27.070;2023-02-12T06:31:31;101346.85;;;-6.35;97.09
63691;BME280;49837;57.280;27.070;2023-02-12T06:32:29;101350.25;;;-6.36;97.05
63691;BME280;49837;57.280;27.070;2023-02-12T06:33:30;101351.28;;;-6.37;97.01
63691;BME280;49837;57.280;27.070;2023-02-12T06:34:30;101348.77;;;-6.37;97.06
63691;BME280;49837;57.280;27.070;2023-02-12T06:35:30;101353.62;;;-6.37;97.12
63691;BME280;49837;57.280;27.070;2023-02-12T06:36:31;101350.53;;;-6.4;97.19
63691;BME280;49837;57.280;27.070;2023-02-12T06:37:31;101356.62;;;-6.36;97.2